sensor_id;sensor_type;location;lat;lon;timestamp;temperature;humidity
336;DHT22;156;48.738;9.228;2023-04-08T00:00:04;7.10;99.90
336;DHT22;156;48.738;9.228;2023-04-08T00:02:32;7.20;99.90
336;DHT22;156;48.738;9.228;2023-04-08T00:05:00;7.20;99.90
336;DHT22;156;48.738;9.228;2023-04-08T00:07:28;7.20;99.90
336;DHT22;156;48.738;9.228;2023-04-08T00:09:55;7.20;99.90
336;DHT22;156;48.738;9.228;2023-04-08T00:12:22;7.20;99.90
336;DHT22;156;48.738;9.228;2023-04-08T00:14:49;7.20;99.90
336;DHT22;156;48.738;9.228;2023-04-08T00:17:16;7.10;99.90
336;DHT22;156;48.738;9.228;2023-04-08T00:19:43;7.10;99.90
336;DHT22;156;48.738;9.228;2023-04-08T00:22:11;7.10;99.90
336;DHT22;156;48.738;9.228;2023-04-08T00:24:38;7.00;99.90
336;DHT22;156;48.738;9.228;2023-04-08T00:27:05;7.00;99.90
336;DHT22;156;48.738;9.228;2023-04-08T00:29:32;7.00;99.90
336;DHT22;156;48.738;9.228;2023-04-08T00:31:59;7.10;99.90
336;DHT22;156;48.738;9.228;2023-04-08T00:34:26;7.10;99.90
336;DHT22;156;48.738;9.228;2023-04-08T00:36:53;7.10;99.90
336;DHT22;156;48.738;9.228;2023-04-08T00:39:22;7.10;99.90
336;DHT22;156;48.738;9.228;2023-04-08T00:41:49;7.00;99.90
336;DHT22;156;48.738;9.228;2023-04-08T00:44:16;7.00;99.90
336;DHT22;156;48.738;9.228;2023-04-08T00:46:43;7.00;99.90
336;DHT22;156;48.738;9.228;2023-04-08T00:49:10;6.90;99.90
336;DHT22;156;48.738;9.228;2023-04-08T00:51:36;6.90;99.90
336;DHT22;156;48.738;9.228;2023-04-08T00:54:04;7.00;99.90
336;DHT22;156;48.738;9.228;2023-04-08T00:56:33;7.00;99.90
336;DHT22;156;48.738;9.228;2023-04-08T00:59:01;7.00;99.90
336;DHT22;156;48.738;9.228;2023-04-08T01:01:36;6.90;99.90
336;DHT22;156;48.738;9.228;2023-04-08T01:04:09;6.90;99.90
336;DHT22;156;48.738;9.228;2023-04-08T01:06:43;7.00;99.90
336;DHT22;156;48.738;9.228;2023-04-08T01:09:13;7.00;99.90
336;DHT22;156;48.738;9.228;2023-04-08T01:11:48;7.00;99.90
336;DHT22;156;48.738;9.228;2023-04-08T01:14:20;6.90;99.90
336;DHT22;156;48.738;9.228;2023-04-08T01:16:48;6.90;99.90
336;DHT22;156;48.738;9.228;2023-04-08T01:19:20;6.90;99.90
336;DHT22;156;48.738;9.228;2023-04-08T01:21:50;6.90;99.90
336;DHT22;156;48.738;9.228;2023-04-08T01:24:22;6.90;99.90
336;DHT22;156;48.738;9.228;2023-04-08T01:26:53;6.90;99.90
336;DHT22;156;48.738;9.228;2023-04-08T01:29:23;6.80;99.90
336;DHT22;156;48.738;9.228;2023-04-08T01:31:51;6.80;99.90
336;DHT22;156;48.738;9.228;2023-04-08T01:34:20;6.80;99.90
336;DHT22;156;48.738;9.228;2023-04-08T01:36:48;6.80;99.90
336;DHT22;156;48.738;9.228;2023-04-08T01:39:16;6.80;99.90
336;DHT22;156;48.738;9.228;2023-04-08T01:41:45;6.80;99.90
336;DHT22;156;48.738;9.228;2023-04-08T01:44:14;6.80;99.90
336;DHT22;156;48.738;9.228;2023-04-08T01:46:42;6.80;99.90
336;DHT22;156;48.738;9.228;2023-04-08T01:49:10;6.80;99.90
336;DHT22;156;48.738;9.228;2023-04-08T01:51:38;6.80;99.90
336;DHT22;156;48.738;9.228;2023-04-08T01:54:05;6.80;99.90
336;DHT22;156;48.738;9.228;2023-04-08T01:56:36;6.70;99.90
336;DHT22;156;48.738;9.228;2023-04-08T01:59:09;6.70;99.90
336;DHT22;156;48.738;9.228;2023-04-08T02:01:39;6.70;99.90
336;DHT22;156;48.738;9.228;2023-04-08T02:04:06;6.70;99.90
336;DHT22;156;48.738;9.228;2023-04-08T02:06:33;6.70;99.90
336;DHT22;156;48.738;9.228;2023-04-08T02:09:01;6.70;99.90
336;DHT22;156;48.738;9.228;2023-04-08T02:11:28;6.80;99.90
336;DHT22;156;48.738;9.228;2023-04-08T02:13:56;6.80;99.90
336;DHT22;156;48.738;9.228;2023-04-08T02:16:28;6.70;99.90
336;DHT22;156;48.738;9.228;2023-04-08T02:18:59;6.80;99.90
336;DHT22;156;48.738;9.228;2023-04-08T02:21:35;6.70;99.90
336;DHT22;156;48.738;9.228;2023-04-08T02:24:04;6.60;99.90
336;DHT22;156;48.738;9.228;2023-04-08T02:26:35;6.60;99.90
336;DHT22;156;48.738;9.228;2023-04-08T02:29:03;6.70;99.90
336;DHT22;156;48.738;9.228;2023-04-08T02:31:31;6.70;99.90
336;DHT22;156;48.738;9.228;2023-04-08T02:34:00;6.60;99.90
336;DHT22;156;48.738;9.228;2023-04-08T02:36:27;6.60;99.90
336;DHT22;156;48.738;9.228;2023-04-08T02:38:54;6.50;99.90
336;DHT22;156;48.738;9.228;2023-04-08T02:41:20;6.60;99.90
336;DHT22;156;48.738;9.228;2023-04-08T02:43:47;6.50;99.90
336;DHT22;156;48.738;9.228;2023-04-08T02:46:20;6.50;99.90
336;DHT22;156;48.738;9.228;2023-04-08T02:48:47;6.60;99.90
336;DHT22;156;48.738;9.228;2023-04-08T02:51:15;6.50;99.90
336;DHT22;156;48.738;9.228;2023-04-08T02:53:42;6.50;99.90
336;DHT22;156;48.738;9.228;2023-04-08T02:56:09;6.50;99.90
336;DHT22;156;48.738;9.228;2023-04-08T02:58:36;6.50;99.90
336;DHT22;156;48.738;9.228;2023-04-08T03:01:03;6.60;99.90
336;DHT22;156;48.738;9.228;2023-04-08T03:03:31;6.50;99.90
336;DHT22;156;48.738;9.228;2023-04-08T03:05:58;6.50;99.90
336;DHT22;156;48.738;9.228;2023-04-08T03:08:26;6.50;99.90
336;DHT22;156;48.738;9.228;2023-04-08T03:10:53;6.50;99.90
336;DHT22;156;48.738;9.228;2023-04-08T03:13:20;6.50;99.90
336;DHT22;156;48.738;9.228;2023-04-08T03:15:47;6.50;99.90
336;DHT22;156;48.738;9.228;2023-04-08T03:18:14;6.50;99.90
336;DHT22;156;48.738;9.228;2023-04-08T03:20:42;6.50;99.90
336;DHT22;156;48.738;9.228;2023-04-08T03:23:09;6.50;99.90
336;DHT22;156;48.738;9.228;2023-04-08T03:25:38;6.50;99.90
336;DHT22;156;48.738;9.228;2023-04-08T03:28:04;6.50;99.90
336;DHT22;156;48.738;9.228;2023-04-08T03:30:31;6.50;99.90
336;DHT22;156;48.738;9.228;2023-04-08T03:32:58;6.50;99.90
336;DHT22;156;48.738;9.228;2023-04-08T03:35:27;6.60;98.70
336;DHT22;156;48.738;9.228;2023-04-08T03:37:54;6.50;96.30
336;DHT22;156;48.738;9.228;2023-04-08T03:40:21;6.50;94.20
336;DHT22;156;48.738;9.228;2023-04-08T03:42:49;6.50;92.90
336;DHT22;156;48.738;9.228;2023-04-08T03:45:16;6.50;91.70
336;DHT22;156;48.738;9.228;2023-04-08T03:47:43;6.50;90.90
336;DHT22;156;48.738;9.228;2023-04-08T03:50:10;6.50;91.00
336;DHT22;156;48.738;9.228;2023-04-08T03:52:37;6.50;92.00
336;DHT22;156;48.738;9.228;2023-04-08T03:55:05;6.50;93.10
336;DHT22;156;48.738;9.228;2023-04-08T03:57:31;6.50;94.30
336;DHT22;156;48.738;9.228;2023-04-08T04:00:00;6.50;94.90
336;DHT22;156;48.738;9.228;2023-04-08T04:02:27;6.60;96.10
336;DHT22;156;48.738;9.228;2023-04-08T04:04:54;6.60;95.80
336;DHT22;156;48.738;9.228;2023-04-08T04:07:20;6.60;96.20
336;DHT22;156;48.738;9.228;2023-04-08T04:09:47;6.60;96.40
336;DHT22;156;48.738;9.228;2023-04-08T04:12:18;6.50;96.30
336;DHT22;156;48.738;9.228;2023-04-08T04:14:46;6.60;97.70
336;DHT22;156;48.738;9.228;2023-04-08T04:17:14;6.50;97.90
336;DHT22;156;48.738;9.228;2023-04-08T04:19:41;6.50;99.20
336;DHT22;156;48.738;9.228;2023-04-08T04:22:08;6.50;98.70
336;DHT22;156;48.738;9.228;2023-04-08T04:24:35;6.40;99.50
336;DHT22;156;48.738;9.228;2023-04-08T04:27:02;6.40;99.90
336;DHT22;156;48.738;9.228;2023-04-08T04:29:30;6.40;99.90
336;DHT22;156;48.738;9.228;2023-04-08T04:31:57;6.40;99.90
336;DHT22;156;48.738;9.228;2023-04-08T04:34:25;6.30;99.90
336;DHT22;156;48.738;9.228;2023-04-08T04:36:52;6.40;99.90
336;DHT22;156;48.738;9.228;2023-04-08T04:39:19;6.40;99.90
336;DHT22;156;48.738;9.228;2023-04-08T04:41:46;6.40;99.90
336;DHT22;156;48.738;9.228;2023-04-08T04:44:13;6.40;99.90
336;DHT22;156;48.738;9.228;2023-04-08T04:46:41;6.30;99.90
336;DHT22;156;48.738;9.228;2023-04-08T04:49:08;6.30;99.90
336;DHT22;156;48.738;9.228;2023-04-08T04:51:36;6.30;99.90
336;DHT22;156;48.738;9.228;2023-04-08T04:54:03;6.30;99.90
336;DHT22;156;48.738;9.228;2023-04-08T04:56:30;6.30;99.90
336;DHT22;156;48.738;9.228;2023-04-08T04:58:57;6.30;99.90
336;DHT22;156;48.738;9.228;2023-04-08T05:01:24;6.40;99.90
336;DHT22;156;48.738;9.228;2023-04-08T05:03:51;6.50;99.90
336;DHT22;156;48.738;9.228;2023-04-08T05:06:18;6.30;99.90
336;DHT22;156;48.738;9.228;2023-04-08T05:08:46;6.30;99.90
336;DHT22;156;48.738;9.228;2023-04-08T05:11:13;6.20;99.90
336;DHT22;156;48.738;9.228;2023-04-08T05:13:42;6.20;99.90
336;DHT22;156;48.738;9.228;2023-04-08T05:16:09;6.20;99.90
336;DHT22;156;48.738;9.228;2023-04-08T05:18:36;6.20;99.90
336;DHT22;156;48.738;9.228;2023-04-08T05:21:04;6.30;99.90
336;DHT22;156;48.738;9.228;2023-04-08T05:23:30;6.30;99.90
336;DHT22;156;48.738;9.228;2023-04-08T05:25:59;6.30;99.90
336;DHT22;156;48.738;9.228;2023-04-08T05:28:26;6.20;99.90
336;DHT22;156;48.738;9.228;2023-04-08T05:30:53;6.20;99.90
336;DHT22;156;48.738;9.228;2023-04-08T05:33:20;6.20;99.90
336;DHT22;156;48.738;9.228;2023-04-08T05:35:47;6.10;99.90
336;DHT22;156;48.738;9.228;2023-04-08T05:38:14;6.10;99.90
336;DHT22;156;48.738;9.228;2023-04-08T05:40:41;6.10;99.90
336;DHT22;156;48.738;9.228;2023-04-08T05:43:09;6.20;99.90
336;DHT22;156;48.738;9.228;2023-04-08T05:45:36;6.20;99.90
336;DHT22;156;48.738;9.228;2023-04-08T05:48:03;6.30;99.90
336;DHT22;156;48.738;9.228;2023-04-08T05:50:30;6.30;99.90
336;DHT22;156;48.738;9.228;2023-04-08T05:52:57;6.30;99.90
336;DHT22;156;48.738;9.228;2023-04-08T05:55:24;6.30;99.90
336;DHT22;156;48.738;9.228;2023-04-08T05:57:51;6.30;99.90
336;DHT22;156;48.738;9.228;2023-04-08T06:00:19;6.40;99.90
336;DHT22;156;48.738;9.228;2023-04-08T06:02:46;6.30;99.90
336;DHT22;156;48.738;9.228;2023-04-08T06:05:13;6.30;99.90
336;DHT22;156;48.738;9.228;2023-04-08T06:07:40;6.40;99.90
336;DHT22;156;48.738;9.228;2023-04-08T06:10:08;6.40;99.90
336;DHT22;156;48.738;9.228;2023-04-08T06:12:35;6.40;99.90
336;DHT22;156;48.738;9.228;2023-04-08T06:15:03;6.40;99.90
336;DHT22;156;48.738;9.228;2023-04-08T06:17:32;6.40;99.90
336;DHT22;156;48.738;9.228;2023-04-08T06:20:01;6.40;99.90
336;DHT22;156;48.738;9.228;2023-04-08T06:22:28;6.50;99.90
336;DHT22;156;48.738;9.228;2023-04-08T06:24:55;6.40;99.90
336;DHT22;156;48.738;9.228;2023-04-08T06:27:22;6.50;99.90
336;DHT22;156;48.738;9.228;2023-04-08T06:29:49;6.50;99.90
336;DHT22;156;48.738;9.228;2023-04-08T06:32:16;6.50;99.90
336;DHT22;156;48.738;9.228;2023-04-08T06:34:45;6.60;99.90
336;DHT22;156;48.738;9.228;2023-04-08T06:37:12;6.60;99.90
336;DHT22;156;48.738;9.228;2023-04-08T06:39:39;6.60;99.90
336;DHT22;156;48.738;9.228;2023-04-08T06:42:06;6.60;99.90
336;DHT22;156;48.738;9.228;2023-04-08T06:44:33;6.60;99.90
336;DHT22;156;48.738;9.228;2023-04-08T06:47:00;6.70;99.90
336;DHT22;156;48.738;9.228;2023-04-08T06:49:27;6.70;99.90
336;DHT22;156;48.738;9.228;2023-04-08T06:51:56;6.80;99.90
336;DHT22;156;48.738;9.228;2023-04-08T06:54:25;6.90;99.90
336;DHT22;156;48.738;9.228;2023-04-08T06:56:52;6.90;99.90
336;DHT22;156;48.738;9.228;2023-04-08T06:59:19;6.90;99.90
336;DHT22;156;48.738;9.228;2023-04-08T07:01:46;6.90;96.40
336;DHT22;156;48.738;9.228;2023-04-08T07:04:12;6.90;97.50
336;DHT22;156;48.738;9.228;2023-04-08T07:06:39;6.90;97.20
336;DHT22;156;48.738;9.228;2023-04-08T07:09:08;6.90;95.00
336;DHT22;156;48.738;9.228;2023-04-08T07:11:35;6.80;93.60
336;DHT22;156;48.738;9.228;2023-04-08T07:14:01;6.80;93.40
336;DHT22;156;48.738;9.228;2023-04-08T07:16:28;6.70;92.00
336;DHT22;156;48.738;9.228;2023-04-08T07:18:56;6.70;92.40
336;DHT22;156;48.738;9.228;2023-04-08T07:21:23;6.90;94.00
336;DHT22;156;48.738;9.228;2023-04-08T07:23:50;6.90;89.00
336;DHT22;156;48.738;9.228;2023-04-08T07:26:19;6.90;85.40
336;DHT22;156;48.738;9.228;2023-04-08T07:28:46;6.80;85.10
336;DHT22;156;48.738;9.228;2023-04-08T07:31:14;6.80;79.40
336;DHT22;156;48.738;9.228;2023-04-08T07:33:42;6.70;82.40
336;DHT22;156;48.738;9.228;2023-04-08T07:36:10;6.80;87.00
336;DHT22;156;48.738;9.228;2023-04-08T07:38:37;6.90;86.20
336;DHT22;156;48.738;9.228;2023-04-08T07:41:04;7.00;87.10
336;DHT22;156;48.738;9.228;2023-04-08T07:43:33;7.00;80.70
336;DHT22;156;48.738;9.228;2023-04-08T07:46:01;7.10;71.40
336;DHT22;156;48.738;9.228;2023-04-08T07:48:29;7.10;65.70
336;DHT22;156;48.738;9.228;2023-04-08T07:50:56;7.10;54.20
336;DHT22;156;48.738;9.228;2023-04-08T07:53:23;7.10;56.40
336;DHT22;156;48.738;9.228;2023-04-08T07:55:51;7.10;57.40
336;DHT22;156;48.738;9.228;2023-04-08T07:58:18;7.20;52.30
336;DHT22;156;48.738;9.228;2023-04-08T08:00:46;7.30;52.00
336;DHT22;156;48.738;9.228;2023-04-08T08:03:13;7.50;46.40
336;DHT22;156;48.738;9.228;2023-04-08T08:05:40;7.60;39.10
336;DHT22;156;48.738;9.228;2023-04-08T08:08:07;7.50;29.00
336;DHT22;156;48.738;9.228;2023-04-08T08:10:36;7.60;23.90
336;DHT22;156;48.738;9.228;2023-04-08T08:13:03;7.60;21.00
336;DHT22;156;48.738;9.228;2023-04-08T08:15:30;7.70;20.00
336;DHT22;156;48.738;9.228;2023-04-08T08:17:58;7.70;13.00
336;DHT22;156;48.738;9.228;2023-04-08T08:20:25;7.60;8.10
336;DHT22;156;48.738;9.228;2023-04-08T08:22:52;7.70;8.80
336;DHT22;156;48.738;9.228;2023-04-08T08:25:19;7.80;9.20
336;DHT22;156;48.738;9.228;2023-04-08T08:27:46;7.70;7.40
336;DHT22;156;48.738;9.228;2023-04-08T08:30:13;7.70;6.80
336;DHT22;156;48.738;9.228;2023-04-08T08:32:40;8.00;7.70
336;DHT22;156;48.738;9.228;2023-04-08T08:35:09;7.90;1.00
336;DHT22;156;48.738;9.228;2023-04-08T08:37:36;8.00;1.00
336;DHT22;156;48.738;9.228;2023-04-08T08:40:03;8.20;1.00
336;DHT22;156;48.738;9.228;2023-04-08T08:42:30;8.10;1.00
336;DHT22;156;48.738;9.228;2023-04-08T08:44:59;8.20;1.00
336;DHT22;156;48.738;9.228;2023-04-08T08:47:27;8.20;1.00
336;DHT22;156;48.738;9.228;2023-04-08T08:49:54;8.40;1.00
336;DHT22;156;48.738;9.228;2023-04-08T08:52:22;8.50;1.00
336;DHT22;156;48.738;9.228;2023-04-08T08:54:56;8.50;1.00
336;DHT22;156;48.738;9.228;2023-04-08T08:57:23;8.70;1.00
336;DHT22;156;48.738;9.228;2023-04-08T08:59:50;8.70;1.00
336;DHT22;156;48.738;9.228;2023-04-08T09:02:24;8.70;1.00
336;DHT22;156;48.738;9.228;2023-04-08T09:04:56;8.80;1.00
336;DHT22;156;48.738;9.228;2023-04-08T09:07:26;8.70;1.00
336;DHT22;156;48.738;9.228;2023-04-08T09:09:54;8.90;1.00
336;DHT22;156;48.738;9.228;2023-04-08T09:12:21;9.00;1.00
336;DHT22;156;48.738;9.228;2023-04-08T09:14:48;9.10;1.00
336;DHT22;156;48.738;9.228;2023-04-08T09:17:29;9.20;1.00
336;DHT22;156;48.738;9.228;2023-04-08T09:20:07;9.50;1.00
336;DHT22;156;48.738;9.228;2023-04-08T09:22:59;9.60;1.00
336;DHT22;156;48.738;9.228;2023-04-08T09:25:26;9.60;1.00
336;DHT22;156;48.738;9.228;2023-04-08T09:27:54;9.50;1.00
336;DHT22;156;48.738;9.228;2023-04-08T09:30:24;9.40;1.00
336;DHT22;156;48.738;9.228;2023-04-08T09:32:53;9.50;1.00
336;DHT22;156;48.738;9.228;2023-04-08T09:35:20;9.40;1.00
336;DHT22;156;48.738;9.228;2023-04-08T09:37:49;9.30;1.00
336;DHT22;156;48.738;9.228;2023-04-08T09:40:17;9.30;1.00
336;DHT22;156;48.738;9.228;2023-04-08T09:42:46;9.40;1.00
336;DHT22;156;48.738;9.228;2023-04-08T09:45:16;9.50;1.00
336;DHT22;156;48.738;9.228;2023-04-08T09:47:51;9.50;1.00
336;DHT22;156;48.738;9.228;2023-04-08T09:50:23;9.50;1.00
336;DHT22;156;48.738;9.228;2023-04-08T09:52:57;9.50;1.00
336;DHT22;156;48.738;9.228;2023-04-08T09:55:29;9.50;1.00
336;DHT22;156;48.738;9.228;2023-04-08T09:58:00;9.70;1.00
336;DHT22;156;48.738;9.228;2023-04-08T10:00:32;9.60;1.00
336;DHT22;156;48.738;9.228;2023-04-08T10:03:05;9.80;1.00
336;DHT22;156;48.738;9.228;2023-04-08T10:05:37;9.80;1.00
336;DHT22;156;48.738;9.228;2023-04-08T10:08:06;9.90;1.00
336;DHT22;156;48.738;9.228;2023-04-08T10:10:37;10.00;1.00
336;DHT22;156;48.738;9.228;2023-04-08T10:13:06;10.00;1.00
336;DHT22;156;48.738;9.228;2023-04-08T10:15:34;10.00;1.00
336;DHT22;156;48.738;9.228;2023-04-08T10:18:29;10.10;1.00
336;DHT22;156;48.738;9.228;2023-04-08T10:20:58;10.20;1.00
336;DHT22;156;48.738;9.228;2023-04-08T10:23:52;10.40;1.00
336;DHT22;156;48.738;9.228;2023-04-08T10:26:35;10.20;1.00
336;DHT22;156;48.738;9.228;2023-04-08T10:32:02;9.90;1.00
336;DHT22;156;48.738;9.228;2023-04-08T10:34:29;10.10;1.00
336;DHT22;156;48.738;9.228;2023-04-08T10:36:56;9.90;1.00
336;DHT22;156;48.738;9.228;2023-04-08T10:39:29;10.00;1.00
336;DHT22;156;48.738;9.228;2023-04-08T10:42:00;9.90;1.00
336;DHT22;156;48.738;9.228;2023-04-08T10:44:28;9.80;1.00
336;DHT22;156;48.738;9.228;2023-04-08T10:46:55;9.90;1.00
336;DHT22;156;48.738;9.228;2023-04-08T10:49:31;10.10;1.00
336;DHT22;156;48.738;9.228;2023-04-08T10:51:59;10.00;1.00
336;DHT22;156;48.738;9.228;2023-04-08T10:54:26;10.00;1.00
336;DHT22;156;48.738;9.228;2023-04-08T10:56:53;9.80;1.00
336;DHT22;156;48.738;9.228;2023-04-08T10:59:28;9.60;1.00
336;DHT22;156;48.738;9.228;2023-04-08T11:01:56;9.50;1.00
336;DHT22;156;48.738;9.228;2023-04-08T11:04:24;9.50;1.00
336;DHT22;156;48.738;9.228;2023-04-08T11:06:52;9.50;1.00
336;DHT22;156;48.738;9.228;2023-04-08T11:09:19;9.40;1.00
336;DHT22;156;48.738;9.228;2023-04-08T11:11:46;9.40;1.00
336;DHT22;156;48.738;9.228;2023-04-08T11:14:14;9.50;1.00
336;DHT22;156;48.738;9.228;2023-04-08T11:16:45;9.40;1.00
336;DHT22;156;48.738;9.228;2023-04-08T11:19:13;9.60;1.00
336;DHT22;156;48.738;9.228;2023-04-08T11:21:40;9.70;1.00
336;DHT22;156;48.738;9.228;2023-04-08T11:24:09;9.60;1.00
336;DHT22;156;48.738;9.228;2023-04-08T11:26:38;9.80;1.00
336;DHT22;156;48.738;9.228;2023-04-08T11:29:09;9.80;1.00
336;DHT22;156;48.738;9.228;2023-04-08T11:31:39;9.90;1.00
336;DHT22;156;48.738;9.228;2023-04-08T11:34:08;9.90;1.00
336;DHT22;156;48.738;9.228;2023-04-08T11:36:35;9.90;1.00
336;DHT22;156;48.738;9.228;2023-04-08T11:39:06;9.70;1.00
336;DHT22;156;48.738;9.228;2023-04-08T11:41:37;9.60;1.00
336;DHT22;156;48.738;9.228;2023-04-08T11:44:05;9.60;1.00
336;DHT22;156;48.738;9.228;2023-04-08T11:46:32;9.60;1.00
336;DHT22;156;48.738;9.228;2023-04-08T11:49:01;9.60;1.00
336;DHT22;156;48.738;9.228;2023-04-08T11:51:30;9.60;1.00
336;DHT22;156;48.738;9.228;2023-04-08T11:53:57;9.60;1.00
336;DHT22;156;48.738;9.228;2023-04-08T11:56:24;9.70;1.00
336;DHT22;156;48.738;9.228;2023-04-08T11:58:51;9.70;1.00
336;DHT22;156;48.738;9.228;2023-04-08T12:01:19;9.80;1.00
336;DHT22;156;48.738;9.228;2023-04-08T12:03:57;9.80;1.00
336;DHT22;156;48.738;9.228;2023-04-08T12:06:24;9.80;1.00
336;DHT22;156;48.738;9.228;2023-04-08T12:08:54;9.90;1.00
336;DHT22;156;48.738;9.228;2023-04-08T12:11:22;9.90;1.00
336;DHT22;156;48.738;9.228;2023-04-08T12:13:49;9.90;1.00
336;DHT22;156;48.738;9.228;2023-04-08T12:16:17;9.80;1.00
336;DHT22;156;48.738;9.228;2023-04-08T12:18:44;9.70;1.00
336;DHT22;156;48.738;9.228;2023-04-08T12:21:12;9.80;1.00
336;DHT22;156;48.738;9.228;2023-04-08T12:23:39;9.90;1.00
336;DHT22;156;48.738;9.228;2023-04-08T12:26:07;9.90;1.00
336;DHT22;156;48.738;9.228;2023-04-08T12:28:34;9.80;1.00
336;DHT22;156;48.738;9.228;2023-04-08T12:31:02;10.00;1.00
336;DHT22;156;48.738;9.228;2023-04-08T12:33:29;10.00;1.00
336;DHT22;156;48.738;9.228;2023-04-08T12:35:56;10.10;1.00
336;DHT22;156;48.738;9.228;2023-04-08T12:38:23;10.10;1.00
336;DHT22;156;48.738;9.228;2023-04-08T12:40:51;10.20;1.00
336;DHT22;156;48.738;9.228;2023-04-08T12:43:19;10.20;1.00
336;DHT22;156;48.738;9.228;2023-04-08T12:45:46;10.10;1.00
336;DHT22;156;48.738;9.228;2023-04-08T12:48:14;10.10;1.00
336;DHT22;156;48.738;9.228;2023-04-08T12:50:41;10.10;1.00
336;DHT22;156;48.738;9.228;2023-04-08T12:53:08;10.20;1.00
336;DHT22;156;48.738;9.228;2023-04-08T12:55:35;10.30;1.00
336;DHT22;156;48.738;9.228;2023-04-08T12:58:02;10.30;1.00
336;DHT22;156;48.738;9.228;2023-04-08T13:00:31;10.10;1.00
336;DHT22;156;48.738;9.228;2023-04-08T13:02:58;10.20;1.00
336;DHT22;156;48.738;9.228;2023-04-08T13:05:25;10.10;1.00
336;DHT22;156;48.738;9.228;2023-04-08T13:07:52;9.90;1.00
336;DHT22;156;48.738;9.228;2023-04-08T13:10:19;9.80;1.00
336;DHT22;156;48.738;9.228;2023-04-08T13:12:46;9.70;1.00
336;DHT22;156;48.738;9.228;2023-04-08T13:15:13;9.60;1.00
336;DHT22;156;48.738;9.228;2023-04-08T13:17:41;9.60;1.00
336;DHT22;156;48.738;9.228;2023-04-08T13:20:09;9.60;1.00
336;DHT22;156;48.738;9.228;2023-04-08T13:22:36;9.50;1.00
336;DHT22;156;48.738;9.228;2023-04-08T13:25:03;9.60;1.00
336;DHT22;156;48.738;9.228;2023-04-08T13:27:31;9.60;1.00
336;DHT22;156;48.738;9.228;2023-04-08T13:29:58;9.50;1.00
336;DHT22;156;48.738;9.228;2023-04-08T13:32:25;9.50;1.00
336;DHT22;156;48.738;9.228;2023-04-08T13:34:53;9.60;1.00
336;DHT22;156;48.738;9.228;2023-04-08T13:37:20;9.50;1.00
336;DHT22;156;48.738;9.228;2023-04-08T13:39:47;9.70;1.00
336;DHT22;156;48.738;9.228;2023-04-08T13:42:14;9.70;1.00
336;DHT22;156;48.738;9.228;2023-04-08T13:44:41;9.60;1.00
336;DHT22;156;48.738;9.228;2023-04-08T13:47:08;9.50;1.00
336;DHT22;156;48.738;9.228;2023-04-08T13:49:35;9.50;1.00
336;DHT22;156;48.738;9.228;2023-04-08T13:52:03;9.50;1.00
336;DHT22;156;48.738;9.228;2023-04-08T13:54:30;9.60;1.00
336;DHT22;156;48.738;9.228;2023-04-08T13:56:57;9.60;1.00
336;DHT22;156;48.738;9.228;2023-04-08T13:59:24;9.60;1.00
336;DHT22;156;48.738;9.228;2023-04-08T14:01:51;9.70;1.00
336;DHT22;156;48.738;9.228;2023-04-08T14:04:18;9.80;1.00
336;DHT22;156;48.738;9.228;2023-04-08T14:06:46;9.70;1.00
336;DHT22;156;48.738;9.228;2023-04-08T14:09:16;9.80;1.00
336;DHT22;156;48.738;9.228;2023-04-08T14:11:43;9.70;1.00
336;DHT22;156;48.738;9.228;2023-04-08T14:14:10;9.80;1.00
336;DHT22;156;48.738;9.228;2023-04-08T14:16:37;9.80;1.00
336;DHT22;156;48.738;9.228;2023-04-08T14:19:04;10.10;1.00
336;DHT22;156;48.738;9.228;2023-04-08T14:21:31;10.30;1.00
336;DHT22;156;48.738;9.228;2023-04-08T14:23:58;10.60;1.00
336;DHT22;156;48.738;9.228;2023-04-08T14:26:26;10.40;1.00
336;DHT22;156;48.738;9.228;2023-04-08T14:28:53;10.40;1.00
336;DHT22;156;48.738;9.228;2023-04-08T14:31:20;10.20;1.00
336;DHT22;156;48.738;9.228;2023-04-08T14:33:46;10.00;1.00
336;DHT22;156;48.738;9.228;2023-04-08T14:36:13;10.00;1.00
336;DHT22;156;48.738;9.228;2023-04-08T14:38:41;9.90;1.00
336;DHT22;156;48.738;9.228;2023-04-08T14:41:08;9.80;1.00
336;DHT22;156;48.738;9.228;2023-04-08T14:43:36;10.00;1.00
336;DHT22;156;48.738;9.228;2023-04-08T14:46:03;9.90;1.00
336;DHT22;156;48.738;9.228;2023-04-08T14:48:30;9.90;1.00
336;DHT22;156;48.738;9.228;2023-04-08T14:50:57;10.00;1.00
336;DHT22;156;48.738;9.228;2023-04-08T14:53:24;10.10;1.00
336;DHT22;156;48.738;9.228;2023-04-08T14:55:51;10.20;1.00
336;DHT22;156;48.738;9.228;2023-04-08T14:58:18;10.10;1.00
336;DHT22;156;48.738;9.228;2023-04-08T15:00:47;10.10;1.00
336;DHT22;156;48.738;9.228;2023-04-08T15:03:14;9.90;1.00
336;DHT22;156;48.738;9.228;2023-04-08T15:05:42;9.90;1.00
336;DHT22;156;48.738;9.228;2023-04-08T15:08:09;9.90;1.00
336;DHT22;156;48.738;9.228;2023-04-08T15:10:36;9.90;1.00
336;DHT22;156;48.738;9.228;2023-04-08T15:13:03;10.00;1.00
336;DHT22;156;48.738;9.228;2023-04-08T15:15:30;10.10;1.00
336;DHT22;156;48.738;9.228;2023-04-08T15:17:59;10.20;1.00
336;DHT22;156;48.738;9.228;2023-04-08T15:20:26;10.10;1.00
336;DHT22;156;48.738;9.228;2023-04-08T15:22:53;10.20;1.00
336;DHT22;156;48.738;9.228;2023-04-08T15:25:19;10.10;1.00
336;DHT22;156;48.738;9.228;2023-04-08T15:27:47;9.90;1.00
336;DHT22;156;48.738;9.228;2023-04-08T15:30:14;9.90;1.00
336;DHT22;156;48.738;9.228;2023-04-08T15:32:41;9.90;1.00
336;DHT22;156;48.738;9.228;2023-04-08T15:35:10;10.10;1.00
336;DHT22;156;48.738;9.228;2023-04-08T15:37:37;9.90;1.00
336;DHT22;156;48.738;9.228;2023-04-08T15:40:05;9.90;1.00
336;DHT22;156;48.738;9.228;2023-04-08T15:42:32;9.80;1.00
336;DHT22;156;48.738;9.228;2023-04-08T15:44:59;9.70;1.00
336;DHT22;156;48.738;9.228;2023-04-08T15:47:25;9.80;1.00
336;DHT22;156;48.738;9.228;2023-04-08T15:49:53;9.90;1.00
336;DHT22;156;48.738;9.228;2023-04-08T15:52:23;9.70;1.00
336;DHT22;156;48.738;9.228;2023-04-08T15:54:50;9.70;1.00
336;DHT22;156;48.738;9.228;2023-04-08T15:57:17;9.80;1.00
336;DHT22;156;48.738;9.228;2023-04-08T15:59:46;9.70;1.00
336;DHT22;156;48.738;9.228;2023-04-08T16:02:13;9.70;1.00
336;DHT22;156;48.738;9.228;2023-04-08T16:04:40;9.80;1.00
336;DHT22;156;48.738;9.228;2023-04-08T16:07:07;9.70;1.00
336;DHT22;156;48.738;9.228;2023-04-08T16:09:35;9.70;1.00
336;DHT22;156;48.738;9.228;2023-04-08T16:12:02;9.70;1.00
336;DHT22;156;48.738;9.228;2023-04-08T16:14:29;9.60;1.00
336;DHT22;156;48.738;9.228;2023-04-08T16:16:56;9.40;1.00
336;DHT22;156;48.738;9.228;2023-04-08T16:19:23;9.50;1.00
336;DHT22;156;48.738;9.228;2023-04-08T16:21:50;9.50;1.00
336;DHT22;156;48.738;9.228;2023-04-08T16:24:17;9.50;1.00
336;DHT22;156;48.738;9.228;2023-04-08T16:26:46;9.60;1.00
336;DHT22;156;48.738;9.228;2023-04-08T16:29:13;9.50;1.00
336;DHT22;156;48.738;9.228;2023-04-08T16:31:40;9.60;1.00
336;DHT22;156;48.738;9.228;2023-04-08T16:34:07;9.50;1.00
336;DHT22;156;48.738;9.228;2023-04-08T16:36:34;9.50;1.00
336;DHT22;156;48.738;9.228;2023-04-08T16:39:01;9.50;1.00
336;DHT22;156;48.738;9.228;2023-04-08T16:41:29;9.40;1.00
336;DHT22;156;48.738;9.228;2023-04-08T16:43:57;9.30;1.00
336;DHT22;156;48.738;9.228;2023-04-08T16:46:24;9.30;1.00
336;DHT22;156;48.738;9.228;2023-04-08T16:48:51;9.20;1.00
336;DHT22;156;48.738;9.228;2023-04-08T16:51:18;9.10;1.00
336;DHT22;156;48.738;9.228;2023-04-08T16:53:44;9.20;1.00
336;DHT22;156;48.738;9.228;2023-04-08T16:56:12;9.10;1.00
336;DHT22;156;48.738;9.228;2023-04-08T16:58:40;9.10;1.00
336;DHT22;156;48.738;9.228;2023-04-08T17:01:09;9.10;1.00
336;DHT22;156;48.738;9.228;2023-04-08T17:03:36;9.10;1.00
336;DHT22;156;48.738;9.228;2023-04-08T17:06:06;9.00;1.00